Latest Weather Observations for Broken Hill Airport

IDN60801

Issued at 8:52 am EST Wednesday 18 September 2019 (issued every 10 minutes, with the page automatically refreshed every 10 minutes)

About weather observations | Map of weather stations | Latest weather observations for NSW | Other Formats
Station Details ID: 047048 Name: BROKEN HILL AIRPORT AWS Lat: -32.00 Lon: 141.47 Height: 281.3 m
Data from the previous 72 hours. | See also: Recent months at Broken Hill Airport

Observations are collected in the New South Wales time zone (Eastern Standard Time) which includes daylight savings in the summer period. Therefore 'Rain since 9am' totals and other values are based on the New South Wales time zone, which may differ from local time.

Date/Time
EST
Temp
°C
App
Temp
°C
Dew
Point
°C
Rel
Hum
%
Delta-T
°C
Wind Press
QNH
hPa
Press
MSL
hPa
Rain since
9am
mm
Dir  Spd
km/h
Gust
km/h
Spd
kts
Gust
kts
18/08:30am 11.9 6.8 1.0 47 4.6 ESE 17 20 9 11 1026.5 1026.3 0.0
18/08:00am 10.4 5.0 -1.3 44 4.6 SE 17 22 9 12 1026.1 1025.9 0.0
18/07:30am 6.4 4.0 -3.2 50 3.5 CALM 0 6 0 3 1026.2 1026.0 0.0
18/07:00am 5.2 1.6 -3.3 54 3.0 SSW 6 9 3 5 1026.2 1026.0 0.0
18/06:30am 4.3 0.7 -3.7 56 2.8 SW 6 7 3 4 1026.1 1025.9 0.0
18/06:00am 4.7 1.1 -3.3 56 2.8 S 6 11 3 6 1025.9 1025.6 0.0
18/05:30am 4.8 2.3 -4.0 53 3.1 CALM 0 0 0 0 1025.8 1025.5 0.0
18/05:00am 4.9 2.4 -3.9 53 3.1 CALM 0 0 0 0 1025.8 1025.5 0.0
18/04:30am 4.2 1.6 -4.8 52 3.1 CALM 0 0 0 0 1025.7 1025.4 0.0
18/04:00am 5.4 2.1 -4.4 49 3.4 S 4 7 2 4 1025.8 1025.5 0.0
18/03:30am 5.2 1.5 -4.9 48 3.4 SSE 6 7 3 4 1025.8 1025.5 0.0
18/03:00am 6.1 1.5 -4.1 48 3.6 SE 11 13 6 7 1025.7 1025.4 0.0
18/02:30am 5.9 1.3 -4.5 47 3.6 SSE 11 13 6 7 1025.7 1025.4 0.0
18/02:00am 5.5 1.2 -5.2 46 3.6 SE 9 13 5 7 1026.0 1025.8 0.0
18/01:30am 5.9 2.0 -5.1 45 3.8 SSE 7 11 4 6 1026.3 1026.1 0.0
18/01:00am 6.2 1.5 -5.1 44 3.9 SSE 11 13 6 7 1026.3 1026.1 0.0
18/12:30am 6.2 1.4 -5.7 42 4.0 SE 11 13 6 7 1026.2 1026.0 0.0
18/12:00am 7.0 1.9 -5.3 41 4.2 SE 13 13 7 7 1026.4 1026.2 0.0
 
Date/Time
EST
Temp
°C
App
Temp
°C
Dew
Point
°C
Rel
Hum
%
Delta-T
°C
Wind Press
QNH
hPa
Press
MSL
hPa
Rain since
9am
mm
Dir  Spd
km/h
Gust
km/h
Spd
kts
Gust
kts
17/11:30pm 7.4 2.3 -5.3 40 4.4 SE 13 13 7 7 1026.8 1026.5 0.0
17/11:00pm 8.0 2.9 -5.1 39 4.6 SE 13 15 7 8 1026.8 1026.5 0.0
17/10:30pm 7.8 2.6 -6.0 37 4.8 SE 13 15 7 8 1026.9 1026.6 0.0
17/10:00pm 8.6 3.8 -6.0 35 5.1 SE 11 15 6 8 1027.1 1026.8 0.0
17/09:30pm 9.2 3.7 -5.8 34 5.3 SE 15 20 8 11 1027.0 1026.7 0.0
17/09:00pm 10.1 4.2 -5.8 32 5.6 SSE 17 20 9 11 1026.6 1026.4 0.0
17/08:30pm 10.5 4.9 -5.9 31 5.9 SSE 15 19 8 10 1026.5 1026.3 0.0
17/08:00pm 10.8 5.2 -6.1 30 6.0 SSE 15 19 8 10 1026.2 1026.0 0.0
17/07:30pm 11.2 5.6 -6.2 29 6.2 SSE 15 17 8 9 1026.2 1026.0 0.0
17/07:00pm 12.1 6.2 -5.8 28 6.5 SSE 17 20 9 11 1026.0 1025.8 0.0
17/06:30pm 12.8 6.5 -5.7 27 6.8 SSE 19 26 10 14 1025.6 1025.3 0.0
17/06:00pm 13.5 6.3 -5.6 26 7.1 SSE 24 28 13 15 1025.2 1024.9 0.0
17/05:30pm 14.1 6.4 -6.1 24 7.5 SSE 26 33 14 18 1024.9 1024.6 0.0
17/05:00pm 14.5 7.7 -5.3 25 7.5 S 22 33 12 18 1024.5 1024.2 0.0
17/04:30pm 14.6 7.4 -5.7 24 7.7 SSE 24 32 13 17 1024.3 1024.0 0.0
17/04:00pm 15.1 7.0 -6.4 22 8.0 SSE 28 39 15 21 1024.1 1023.8 0.0
17/03:30pm 15.3 6.9 -5.7 23 7.9 SSE 30 43 16 23 1024.0 1023.7 0.0
17/03:14pm 14.9 6.8 -6.6 22 8.0 SSE 28 46 15 25 1024.1 1023.8 0.0
17/03:00pm 14.6 6.6 -5.7 24 7.6 S 28 41 15 22 1024.2 1023.9 0.0
17/02:30pm 15.0 7.0 -5.9 23 7.9 SSE 28 44 15 24 1024.3 1024.0 0.0
17/02:00pm 14.0 5.0 -5.7 25 7.3 SSE 33 43 18 23 1024.4 1024.1 0.0
17/01:30pm 14.4 6.8 -5.3 25 7.5 SSE 26 35 14 19 1024.7 1024.4 0.0
17/01:00pm 12.9 4.7 -7.7 23 7.2 SSE 28 39 15 21 1024.9 1024.6 0.0
17/12:30pm 12.8 3.8 -6.2 26 6.9 SSE 33 44 18 24 1025.2 1024.9 0.0
17/12:20pm 12.6 3.8 -6.4 26 6.9 SSE 32 56 17 30 1025.2 1024.9 0.0
17/12:00pm 12.1 3.4 -5.4 29 6.4 SSE 32 41 17 22 1025.5 1025.2 0.0
17/11:30am 11.6 2.8 -4.5 32 6.0 SSE 33 44 18 24 1025.8 1025.5 0.0
17/11:00am 10.4 0.7 -5.6 32 5.7 SSE 37 50 20 27 1025.8 1025.5 0.0
17/10:30am 9.7 -0.4 -5.4 34 5.4 SSE 39 52 21 28 1026.3 1026.1 0.0
17/10:00am 9.2 -0.3 -3.7 40 4.8 SSE 37 46 20 25 1026.5 1026.3 0.0
17/09:30am 8.1 -0.8 -1.7 50 3.7 SSE 35 44 19 24 1026.5 1026.3 0.0
17/09:00am 7.5 -0.9 -0.7 56 3.2 SSE 33 43 18 23 1026.4 1026.2 0.0
17/08:30am 6.5 -1.2 0.2 64 2.5 SSE 30 37 16 20 1026.5 1026.3 0.0
17/08:00am 5.8 -1.4 1.0 71 1.9 SSE 28 37 15 20 1026.3 1026.1 0.0
17/07:30am 4.7 -1.3 1.2 78 1.4 SSE 22 28 12 15 1026.0 1025.8 0.0
17/07:00am 4.0 -1.4 1.4 83 1.0 SSE 19 24 10 13 1025.6 1025.3 0.0
17/06:30am 3.9 -1.5 1.3 83 1.0 SSE 19 24 10 13 1025.2 1024.9 0.0
17/06:00am 4.2 -1.3 1.6 83 1.0 SSE 20 26 11 14 1024.8 1024.5 0.0
17/05:30am 4.6 -1.6 2.0 83 1.1 SSE 24 32 13 17 1024.5 1024.2 0.0
17/05:00am 4.8 -0.6 2.3 84 1.0 S 20 28 11 15 1024.3 1024.0 0.0
17/04:30am 5.2 -0.5 2.7 84 1.0 SSE 22 30 12 16 1023.6 1023.3 0.0
17/04:00am 5.5 -0.1 3.3 86 0.9 SSE 22 28 12 15 1023.4 1023.1 0.0
17/03:30am 5.7 0.2 3.9 88 0.8 S 22 32 12 17 1023.5 1023.2 0.0
17/03:00am 6.1 0.3 4.6 90 0.7 S 24 33 13 18 1023.5 1023.2 0.0
17/02:30am 6.3 0.2 4.9 91 0.6 S 26 32 14 17 1023.4 1023.1 0.0
17/02:00am 6.7 0.3 5.2 90 0.7 S 28 35 15 19 1023.7 1023.4 0.0
17/01:30am 6.8 -0.3 5.4 91 0.6 S 32 39 17 21 1024.0 1023.7 0.0
17/01:24am 6.9 -0.2 5.5 91 0.6 S 32 39 17 21 1023.9 1023.6 0.0
17/01:00am 7.2 0.1 5.7 90 0.7 S 32 43 17 23 1023.8 1023.5 0.0
17/12:30am 7.4 0.4 5.9 90 0.7 S 32 43 17 23 1023.8 1023.5 0.0
17/12:00am 7.6 0.6 6.1 90 0.7 S 32 39 17 21 1023.6 1023.3 0.0
 
Date/Time
EST
Temp
°C
App
Temp
°C
Dew
Point
°C
Rel
Hum
%
Delta-T
°C
Wind Press
QNH
hPa
Press
MSL
hPa
Rain since
9am
mm
Dir  Spd
km/h
Gust
km/h
Spd
kts
Gust
kts
16/11:30pm 7.6 2.1 5.7 88 0.9 S 24 33 13 18 1023.4 1023.1 0.0
16/11:00pm 7.6 2.0 5.6 87 0.9 S 24 32 13 17 1023.6 1023.3 0.0
16/10:30pm 7.5 0.7 5.3 86 1.0 S 30 35 16 19 1023.3 1023.0 0.0
16/10:17pm 7.5 0.8 5.5 87 0.9 S 30 41 16 22 1023.4 1023.1 0.0
16/10:00pm 7.8 1.1 5.8 87 0.9 SSE 30 41 16 22 1023.4 1023.1 0.0
16/09:30pm 7.9 -1.0 5.0 82 1.3 SSE 41 54 22 29 1023.0 1022.6 0.0
16/09:08pm 8.7 -1.0 3.1 68 2.4 SSE 43 61 23 33 1023.4 1023.1 0.0
16/09:00pm 8.8 -1.5 2.6 65 2.6 SSE 46 61 25 33 1023.2 1022.9 0.0
16/08:30pm 9.1 -0.6 4.1 71 2.2 S 44 59 24 32 1022.7 1022.4 0.0
16/08:00pm 9.7 -0.2 4.7 71 2.3 S 46 56 25 30 1022.4 1022.1 0.0
16/07:30pm 10.5 1.0 5.1 69 2.5 S 44 57 24 31 1021.0 1020.7 0.0
16/07:00pm 12.4 2.6 5.3 62 3.3 S 46 63 25 34 1021.2 1020.9 0.0
16/06:30pm 14.2 6.5 5.3 55 4.2 SSE 35 43 19 23 1020.1 1019.8 0.0
16/06:00pm 15.8 7.6 4.8 48 5.2 SSE 37 46 20 25 1019.8 1019.4 0.0
16/05:30pm 17.0 8.3 4.0 42 6.2 S 39 48 21 26 1019.6 1019.2 0.0
16/05:00pm 17.3 8.1 3.6 40 6.4 S 41 52 22 28 1019.4 1019.0 0.0
16/04:30pm 18.6 9.0 3.6 37 7.1 S 43 54 23 29 1019.3 1018.9 0.0
16/04:00pm 18.7 10.7 3.7 37 7.1 S 35 44 19 24 1018.9 1018.6 0.0
16/03:30pm 17.9 9.5 3.8 39 6.7 S 37 48 20 26 1018.8 1018.5 0.0
16/03:00pm 18.2 9.5 4.0 39 6.8 S 39 44 21 24 1018.4 1018.1 0.0
16/02:30pm 18.7 10.8 4.1 38 7.0 SSE 35 44 19 24 1018.0 1017.7 0.0
16/02:00pm 18.8 11.9 6.3 44 6.3 SSE 32 39 17 21 1018.0 1017.7 0.0
16/01:30pm 19.4 12.5 6.5 43 6.5 SSE 32 41 17 22 1018.4 1018.1 0.0
16/01:00pm 20.8 14.7 8.1 44 6.7 S 30 41 16 22 1018.6 1018.3 0.0
16/12:30pm 20.6 14.9 8.3 45 6.5 S 28 37 15 20 1019.0 1018.7 0.0
16/12:00pm 20.5 14.9 8.8 47 6.2 S 28 35 15 19 1018.8 1018.5 0.0
16/11:30am 20.0 14.2 9.3 50 5.7 S 30 37 16 20 1019.0 1018.7 0.0
16/11:00am 19.9 14.9 9.5 51 5.6 S 26 35 14 19 1018.8 1018.5 0.0
16/10:30am 19.4 14.3 9.3 52 5.4 S 26 35 14 19 1019.0 1018.7 0.0
16/10:00am 17.9 12.1 9.3 57 4.6 S 30 35 16 19 1018.8 1018.5 0.0
16/09:30am 17.4 11.1 9.1 58 4.4 S 32 41 17 22 1018.9 1018.6 0.0
16/09:00am 17.2 10.8 8.6 57 4.5 SSW 32 37 17 20 1018.8 1018.5 0.0
16/08:30am 16.6 10.1 8.3 58 4.3 SSW 32 39 17 21 1018.8 1018.5 0.0
16/08:00am 16.4 10.2 6.0 50 5.1 SSW 28 35 15 19 1018.5 1018.2 0.0
16/07:30am 16.7 9.6 -0.9 30 7.5 SW 26 41 14 22 1018.3 1018.0 0.0
16/07:00am 19.0 11.7 -6.6 17 9.9 WSW 24 37 13 20 1017.6 1017.3 0.0
16/06:59am 18.7 11.8 -6.1 18 9.7 WSW 22 37 12 20 1017.5 1017.2 0.0
16/06:30am 19.6 14.8 -6.1 17 10.1 NW 11 15 6 8 1016.9 1016.6 0.0
16/06:00am 20.4 14.8 -6.2 16 10.6 NW 15 20 8 11 1016.6 1016.2 0.0
16/05:30am 19.9 15.0 -7.5 15 10.6 NNW 11 13 6 7 1016.4 1016.0 0.0
16/05:00am 21.5 15.5 -7.1 14 11.3 NNW 17 20 9 11 1015.8 1015.4 0.0
16/04:30am 21.9 15.5 -6.8 14 11.4 NNW 19 26 10 14 1015.6 1015.2 0.0
16/04:00am 22.2 15.8 -6.5 14 11.5 NNW 19 26 10 14 1015.6 1015.2 0.0
16/03:30am 21.9 15.5 -6.8 14 11.4 NNW 19 26 10 14 1015.8 1015.4 0.0
16/03:00am 22.4 16.0 -6.4 14 11.6 NNW 19 30 10 16 1016.0 1015.6 0.0
16/02:30am 23.2 16.6 -6.7 13 12.1 N 20 28 11 15 1015.9 1015.5 0.0
16/02:00am 21.1 15.5 -6.5 15 11.0 NNE 15 19 8 10 1016.2 1015.8 0.0
16/01:30am 17.9 11.9 -6.7 18 9.4 NE 17 19 9 10 1016.7 1016.3 0.0
16/01:17am 18.6 12.9 -7.7 16 9.9 NE 15 19 8 10 1016.9 1016.6 0.0
16/01:00am 23.7 18.5 -6.3 13 12.3 N 13 19 7 10 1017.1 1016.8 0.0
16/12:30am 23.5 17.5 -6.5 13 12.2 NNW 17 24 9 13 1017.7 1017.4 0.0
16/12:00am 22.8 17.2 -6.1 14 11.8 NNW 15 20 8 11 1018.2 1017.9 0.0
 
Date/Time
EST
Temp
°C
App
Temp
°C
Dew
Point
°C
Rel
Hum
%
Delta-T
°C
Wind Press
QNH
hPa
Press
MSL
hPa
Rain since
9am
mm
Dir  Spd
km/h
Gust
km/h
Spd
kts
Gust
kts
15/11:30pm 22.4 16.8 -6.4 14 11.6 NNW 15 19 8 10 1018.6 1018.3 0.0
15/11:00pm 22.6 17.4 -6.2 14 11.7 NNW 13 17 7 9 1018.7 1018.4 0.0
15/10:30pm 22.6 17.4 -6.2 14 11.7 NNW 13 17 7 9 1018.9 1018.6 0.0
15/10:00pm 22.6 17.8 -6.2 14 11.7 NNW 11 15 6 8 1019.1 1018.8 0.0
15/09:30pm 22.5 18.0 -7.3 13 11.8 NNW 9 13 5 7 1019.3 1018.9 0.0
15/09:00pm 23.0 18.1 -6.9 13 12.0 NNW 11 13 6 7 1019.3 1018.9 0.0
15/08:30pm 23.1 18.6 -6.8 13 12.1 NNW 9 11 5 6 1019.3 1018.9 0.0
15/08:00pm 23.4 18.9 -6.5 13 12.1 N 9 11 5 6 1019.1 1018.8 0.0
15/07:30pm 23.5 19.4 -6.5 13 12.2 N 7 9 4 5 1019.0 1018.7 0.0
15/07:00pm 24.5 20.0 -6.7 12 12.8 N 9 11 5 6 1018.9 1018.6 0.0
15/06:30pm 25.8 21.4 -5.7 12 13.3 NW 9 13 5 7 1019.1 1018.8 0.0
15/06:00pm 27.0 21.1 -5.9 11 14.0 NW 17 26 9 14 1018.9 1018.6 0.0
15/05:30pm 27.7 21.7 -6.6 10 14.5 NNW 17 26 9 14 1018.6 1018.3 0.0
15/05:00pm 27.4 20.4 -6.9 10 14.4 NNW 22 30 12 16 1018.7 1018.4 0.0
15/04:30pm 28.2 21.4 -5.0 11 14.5 NNW 22 33 12 18 1018.8 1018.5 0.0
15/04:00pm 28.2 21.8 -5.0 11 14.5 NNW 20 35 11 19 1018.9 1018.6 0.0
15/03:30pm 27.9 21.5 -5.2 11 14.3 NNW 20 28 11 15 1019.3 1018.9 0.0
15/03:00pm 27.4 20.7 -4.5 12 13.9 NNW 22 37 12 20 1019.4 1019.0 0.0
15/02:30pm 27.5 21.3 -3.3 13 13.8 NNW 20 30 11 16 1019.7 1019.3 0.0
15/02:00pm 26.8 19.8 -3.9 13 13.5 NNW 24 37 13 20 1020.1 1019.8 0.0
15/01:30pm 28.0 21.1 -3.0 13 14.0 NW 24 39 13 21 1020.6 1020.3 0.0
15/01:00pm 27.7 21.2 -2.2 14 13.6 NNW 22 32 12 17 1020.8 1020.5 0.0
15/12:30pm 27.4 21.3 -2.4 14 13.5 NNW 20 30 11 16 1021.2 1020.9 0.0
15/12:00pm 26.6 19.8 -2.1 15 13.0 NNW 24 35 13 19 1021.7 1021.4 0.0
15/11:30am 26.8 20.7 -2.0 15 13.1 NNW 20 30 11 16 1022.1 1021.8 0.0
15/11:00am 26.1 20.4 -0.8 17 12.4 NNW 19 26 10 14 1022.3 1022.0 0.0
15/10:30am 25.3 19.6 -0.7 18 12.0 NNW 19 28 10 15 1022.6 1022.3 0.0
15/10:00am 24.2 18.6 -0.2 20 11.2 NNW 19 24 10 13 1023.0 1022.6 0.0
15/09:30am 23.3 17.8 0.4 22 10.6 N 19 26 10 14 1022.7 1022.4 0.0

Other formats

Comma delimited format used in spreadsheet applications
http://www.bom.gov.au/fwo/IDN60801/IDN60801.94691.axf

JavaScript Object Notation format (JSON) in row-major order
http://www.bom.gov.au/fwo/IDN60801/IDN60801.94691.json

Data quality

Most of these data are generated automatically and are frequently updated. Quality checks on data are not normally performed. It is possible for incorrect values to appear. Refer to information at About Latest Weather Observations and please check the disclaimer before using these data.